createdAt,value
2023-12-28T00:01:36.088Z,65.4
2023-12-28T00:06:46.501Z,68.9
2023-12-28T00:12:35.865Z,68.8
2023-12-28T00:17:36.081Z,69.4
2023-12-28T00:22:36.027Z,69
2023-12-28T00:27:46.187Z,68.9
2023-12-28T00:32:46.303Z,69.1
2023-12-28T00:37:46.341Z,71.5
2023-12-28T00:42:54.381Z,76.1
2023-12-28T00:48:35.994Z,78.6
2023-12-28T00:53:46.194Z,80.6
2023-12-28T00:58:46.136Z,81.7
2023-12-28T01:04:36.005Z,82.1
2023-12-28T01:09:46.311Z,82.1
2023-12-28T01:15:35.895Z,82.3
2023-12-28T01:20:36.606Z,82
2023-12-28T01:25:46.175Z,82.4
2023-12-28T01:31:36.062Z,82.8
2023-12-28T01:36:46.126Z,81.7
2023-12-28T01:41:46.724Z,81.8
2023-12-28T01:47:36.383Z,81.8
2023-12-28T01:52:46.099Z,81.4
2023-12-28T01:58:36.041Z,80.9
2023-12-28T02:03:36.155Z,80.7
2023-12-28T02:08:46.320Z,80.9
2023-12-28T02:13:46.317Z,81.8
2023-12-28T02:19:36.029Z,81.6
2023-12-28T02:24:46.406Z,81.7
2023-12-28T02:29:46.328Z,81.6
2023-12-28T02:35:35.907Z,80.5
2023-12-28T02:40:36.035Z,80.4
2023-12-28T02:45:46.339Z,80.3
2023-12-28T02:50:46.333Z,80.2
2023-12-28T02:56:36.107Z,80.5
2023-12-28T03:01:46.367Z,81.3
2023-12-28T03:07:36.056Z,81.5
2023-12-28T03:12:36.179Z,81.4
2023-12-28T03:17:46.393Z,81.4
2023-12-28T03:22:46.308Z,81.2
2023-12-28T03:28:36.027Z,81.4
2023-12-28T03:33:36.115Z,81.5
2023-12-28T03:38:36.088Z,82.7
2023-12-28T03:43:46.344Z,83.1
2023-12-28T03:49:35.987Z,83
2023-12-28T03:54:35.892Z,83.1
2023-12-28T03:59:46.485Z,83.8
2023-12-28T04:05:36.119Z,84.3
2023-12-28T04:10:36.055Z,83.9
2023-12-28T04:15:46.355Z,84.4
2023-12-28T04:21:35.833Z,84.7
2023-12-28T04:26:36.019Z,84.5
2023-12-28T04:31:46.149Z,84.5
2023-12-28T04:36:46.208Z,84.6
2023-12-28T04:41:46.415Z,84.6
2023-12-28T04:47:36.027Z,84.6
2023-12-28T04:52:36.045Z,85
2023-12-28T04:57:46.315Z,84.7
2023-12-28T05:02:46.331Z,85
2023-12-28T05:08:36.047Z,85
2023-12-28T05:13:46.353Z,85.3
2023-12-28T05:19:36.269Z,85.1
2023-12-28T05:24:46.130Z,85.6
2023-12-28T05:30:36.013Z,85.8
2023-12-28T05:35:36.052Z,85.6
2023-12-28T05:40:46.315Z,86
2023-12-28T05:45:46.394Z,86.1
2023-12-28T05:50:46.341Z,86.6
2023-12-28T05:56:36.075Z,86.8
2023-12-28T06:01:46.405Z,87.1
2023-12-28T06:06:46.341Z,87.1
2023-12-28T06:12:36.062Z,87.1
2023-12-28T06:17:36.060Z,87.1
2023-12-28T06:22:46.116Z,87.2
2023-12-28T06:27:46.334Z,87.2
2023-12-28T06:38:36.043Z,87.2
2023-12-28T06:43:46.295Z,87.4
2023-12-28T06:54:35.925Z,87.4
2023-12-28T06:59:35.852Z,87.8
2023-12-28T07:04:46.165Z,87.2
2023-12-28T07:10:35.796Z,87.5
2023-12-28T07:15:35.898Z,87.5
2023-12-28T07:20:46.094Z,88.1
2023-12-28T07:25:46.146Z,88.7
2023-12-28T07:31:35.971Z,89.1
2023-12-28T07:36:35.814Z,88.1
2023-12-28T07:41:35.797Z,87.3
2023-12-28T07:46:35.862Z,87.1
2023-12-28T07:51:46.129Z,87.1
2023-12-28T07:56:46.145Z,86.8
2023-12-28T08:02:36.052Z,86.7
2023-12-28T08:07:46.104Z,87.3
2023-12-28T08:12:46.201Z,87.5
2023-12-28T08:17:46.283Z,87.8
2023-12-28T08:22:47.093Z,88.1
2023-12-28T08:27:46.458Z,87.5
2023-12-28T08:32:46.597Z,87.3
2023-12-28T08:38:36.008Z,86.7
2023-12-28T08:43:35.994Z,84.9
2023-12-28T08:48:36.070Z,83.9
2023-12-28T08:53:46.297Z,83.1
2023-12-28T08:58:46.940Z,82.8
2023-12-28T09:03:54.634Z,82.7
2023-12-28T09:09:36.061Z,82
2023-12-28T09:14:36.075Z,81.3
2023-12-28T09:19:36.290Z,80.1
2023-12-28T09:24:46.346Z,77.8
2023-12-28T09:30:36.156Z,76.1
2023-12-28T09:35:36.054Z,74.7
2023-12-28T09:40:46.112Z,74.3
2023-12-28T09:46:35.988Z,73.7
2023-12-28T09:51:36.037Z,72.1
2023-12-28T09:56:46.271Z,72
2023-12-28T10:01:46.373Z,70.2
2023-12-28T10:12:55.706Z,67.8
2023-12-28T10:17:56.804Z,67
2023-12-28T10:23:36.075Z,65.6
2023-12-28T10:28:46.320Z,67.6
2023-12-28T10:34:36.067Z,68.4
2023-12-28T10:39:46.291Z,68.9
2023-12-28T10:44:46.365Z,67.8
2023-12-28T10:50:36.084Z,67.2
2023-12-28T10:55:36.009Z,67.7
2023-12-28T11:00:46.213Z,66.6
2023-12-28T11:05:46.328Z,65.7
2023-12-28T11:11:35.981Z,66.4
2023-12-28T11:16:46.305Z,65.7
2023-12-28T11:22:35.820Z,64.4
2023-12-28T11:27:36.096Z,64.3
2023-12-28T11:32:46.325Z,63.4
2023-12-28T11:42:46.347Z,63.6
2023-12-28T11:47:46.481Z,62.6
2023-12-28T11:58:46.356Z,61.4
2023-12-28T12:04:36.142Z,61.2
2023-12-28T12:09:36.246Z,61.2
2023-12-28T12:14:36.080Z,60.6
2023-12-28T12:19:46.494Z,60.9
2023-12-28T12:24:46.341Z,59
2023-12-28T12:30:35.899Z,60.3
2023-12-28T12:35:35.994Z,60.8
2023-12-28T12:40:36.149Z,61.3
2023-12-28T12:45:48.801Z,60.6
2023-12-28T12:51:36.206Z,60
2023-12-28T12:56:46.136Z,58.9
2023-12-28T13:01:46.412Z,59.5
2023-12-28T13:07:35.878Z,59.3
2023-12-28T13:12:46.181Z,60
2023-12-28T13:18:35.915Z,60.3
2023-12-28T13:23:35.879Z,60
2023-12-28T13:28:46.097Z,60.8
2023-12-28T13:33:46.356Z,60.7
2023-12-28T13:44:46.158Z,61.2
2023-12-28T13:50:35.837Z,62.5
2023-12-28T13:55:46.135Z,61.3
2023-12-28T14:01:35.853Z,61.5
2023-12-28T14:06:35.907Z,61.7
2023-12-28T14:11:46.258Z,62.4
2023-12-28T14:17:36.067Z,62.4
2023-12-28T14:22:46.320Z,62.5
2023-12-28T14:28:36.029Z,63
2023-12-28T14:33:46.442Z,63.7
2023-12-28T14:39:36.053Z,64.5
2023-12-28T14:44:36.042Z,64.1
2023-12-28T14:49:36.113Z,65.7
2023-12-28T14:54:46.344Z,66
2023-12-28T14:59:46.273Z,66.4
2023-12-28T15:05:36.058Z,67
2023-12-28T15:10:47.262Z,66.8
2023-12-28T15:15:46.377Z,66.5
2023-12-28T15:21:36.134Z,67.2
2023-12-28T15:26:46.337Z,67.3
2023-12-28T15:32:36.109Z,67.4
2023-12-28T15:37:46.132Z,67.7
2023-12-28T15:42:49.380Z,67.8
2023-12-28T15:47:46.347Z,67.7
2023-12-28T15:53:36.023Z,69.1
2023-12-28T15:58:46.320Z,69.2
2023-12-28T16:03:47.171Z,69.7
2023-12-28T16:09:35.864Z,70.2
2023-12-28T16:14:36.068Z,70.8
2023-12-28T16:19:36.234Z,70.9
2023-12-28T16:24:46.380Z,70.7
2023-12-28T16:30:36.068Z,71.8
2023-12-28T16:35:46.122Z,71.7
2023-12-28T16:40:46.454Z,72.6
2023-12-28T16:45:46.369Z,72.9
2023-12-28T16:50:46.358Z,72.8
2023-12-28T16:55:46.461Z,73.6
2023-12-28T17:01:36.286Z,73.6
2023-12-28T17:06:46.332Z,73.8
2023-12-28T17:12:36.146Z,74.6
2023-12-28T17:17:46.456Z,74.8
2023-12-28T17:22:46.673Z,75.1
2023-12-28T17:27:46.439Z,73.3
2023-12-28T17:33:35.877Z,73.2
2023-12-28T17:38:36.116Z,72.5
2023-12-28T17:43:46.322Z,72.3
2023-12-28T17:48:46.671Z,71.8
2023-12-28T17:54:36.118Z,72.1
2023-12-28T17:59:46.108Z,71.8
2023-12-28T18:05:36.078Z,71.5
2023-12-28T18:10:36.094Z,70.9
2023-12-28T18:15:46.198Z,71.3
2023-12-28T18:20:46.315Z,71.2
2023-12-28T18:25:46.315Z,71.8
2023-12-28T18:31:36.145Z,72.7
2023-12-28T18:36:46.335Z,73.7
2023-12-28T18:42:35.782Z,73.8
2023-12-28T18:47:36.096Z,74.3
2023-12-28T18:52:36.010Z,74.7
2023-12-28T18:57:36.088Z,75.5
2023-12-28T19:02:36.158Z,75.1
2023-12-28T19:07:46.322Z,75.5
2023-12-28T19:12:46.428Z,76.3
2023-12-28T19:18:35.945Z,77.1
2023-12-28T19:23:35.846Z,76.9
2023-12-28T19:28:46.231Z,76.7
2023-12-28T19:34:35.880Z,77.2
2023-12-28T19:39:35.874Z,77.5
2023-12-28T19:44:46.105Z,76.8
2023-12-28T19:49:46.188Z,77.2
2023-12-28T19:55:35.809Z,77.3
2023-12-28T20:00:35.950Z,77
2023-12-28T20:05:46.159Z,77.7
2023-12-28T20:11:35.873Z,77.8
2023-12-28T20:16:46.129Z,78.4
2023-12-28T20:21:46.162Z,77.7
2023-12-28T20:26:46.157Z,77.7
2023-12-28T20:31:46.383Z,77.6
2023-12-28T20:36:46.308Z,77.6
2023-12-28T20:41:46.328Z,77.2
2023-12-28T20:47:35.807Z,77.4
2023-12-28T20:52:35.842Z,77.8
2023-12-28T20:57:46.380Z,78
2023-12-28T21:03:35.926Z,78.3
2023-12-28T21:08:36.052Z,76.8
2023-12-28T21:13:46.349Z,75.8
2023-12-28T21:18:46.613Z,74.9
2023-12-28T21:24:35.844Z,74.4
2023-12-28T21:29:36.058Z,75.1
2023-12-28T21:34:46.347Z,74
2023-12-28T21:39:46.358Z,74.3
2023-12-28T21:44:46.340Z,73.2
2023-12-28T21:49:46.431Z,72.8
2023-12-28T21:55:36.057Z,72.4
2023-12-28T22:00:46.371Z,72.1
2023-12-28T22:06:36.099Z,71.5
2023-12-28T22:17:36.059Z,72
2023-12-28T22:22:36.054Z,72.4
2023-12-28T22:32:36.168Z,71.5
2023-12-28T22:37:46.305Z,71.6
2023-12-28T22:42:46.351Z,71.8
2023-12-28T22:47:46.334Z,71
2023-12-28T22:53:37.492Z,71.4
2023-12-28T22:58:46.335Z,71.7
2023-12-28T23:03:46.379Z,72.1
2023-12-28T23:09:36.040Z,71.9
2023-12-28T23:14:46.313Z,71.4
2023-12-28T23:19:46.505Z,72.4
2023-12-28T23:25:36.001Z,72
2023-12-28T23:30:36.118Z,71.7
2023-12-28T23:35:46.333Z,71.9
2023-12-28T23:40:46.353Z,71.5
2023-12-28T23:46:36.013Z,71.9
2023-12-28T23:51:36.056Z,72.1
2023-12-28T23:56:46.299Z,72.2
